createdAt,value
2022-12-16T00:01:24.741Z,39.58
2022-12-16T00:03:55.878Z,41.00
2022-12-16T00:06:24.006Z,40.17
2022-12-16T00:08:51.964Z,39.20
2022-12-16T00:11:20.118Z,37.90
2022-12-16T00:13:47.761Z,37.60
2022-12-16T00:16:16.311Z,33.50
2022-12-16T00:18:43.870Z,35.30
2022-12-16T00:21:11.191Z,36.17
2022-12-16T00:23:41.901Z,37.70
2022-12-16T00:26:09.699Z,40.63
2022-12-16T00:28:37.279Z,40.13
2022-12-16T00:31:04.654Z,42.78
2022-12-16T00:33:32.293Z,39.47
2022-12-16T00:35:59.721Z,37.00
2022-12-16T00:38:27.410Z,35.40
2022-12-16T00:40:54.949Z,35.03
2022-12-16T00:43:22.308Z,39.28
2022-12-16T00:45:49.745Z,37.13
2022-12-16T00:48:19.368Z,35.42
2022-12-16T00:50:55.981Z,41.03
2022-12-16T00:53:23.868Z,42.58
2022-12-16T00:55:51.279Z,44.28
2022-12-16T00:58:19.078Z,45.58
2022-12-16T01:00:46.602Z,43.85
2022-12-16T01:03:19.493Z,43.72
2022-12-16T01:05:48.634Z,39.90
2022-12-16T01:08:15.792Z,40.97
2022-12-16T01:10:42.915Z,44.53
2022-12-16T01:13:10.108Z,45.90
2022-12-16T01:15:38.139Z,40.88
2022-12-16T01:18:05.641Z,41.03
2022-12-16T01:20:34.474Z,39.08
2022-12-16T01:23:01.608Z,40.15
2022-12-16T01:25:28.938Z,40.20
2022-12-16T01:27:56.172Z,40.30
2022-12-16T01:30:24.019Z,42.42
2022-12-16T01:32:51.170Z,38.38
2022-12-16T01:35:51.528Z,40.33
2022-12-16T01:38:06.482Z,39.30
2022-12-16T01:40:33.707Z,38.67
2022-12-16T01:43:00.844Z,36.85
2022-12-16T01:45:28.078Z,34.00
2022-12-16T01:47:55.961Z,35.05
2022-12-16T01:50:23.213Z,33.90
2022-12-16T01:52:53.505Z,35.85
2022-12-16T01:55:24.080Z,34.22
2022-12-16T01:57:55.197Z,35.17
2022-12-16T02:00:22.630Z,36.03
2022-12-16T02:02:50.184Z,36.50
2022-12-16T02:05:20.530Z,35.30
2022-12-16T02:08:02.954Z,36.00
2022-12-16T02:10:32.864Z,38.00
2022-12-16T02:13:03.614Z,37.38
2022-12-16T02:15:37.153Z,36.65
2022-12-16T02:18:07.222Z,37.10
2022-12-16T02:20:52.563Z,36.78
2022-12-16T02:23:22.629Z,37.53
2022-12-16T02:26:12.161Z,38.25
2022-12-16T02:28:58.180Z,38.15
2022-12-16T02:31:27.053Z,39.10
2022-12-16T02:33:54.397Z,36.65
2022-12-16T02:36:30.671Z,38.40
2022-12-16T02:39:00.764Z,37.65
2022-12-16T02:41:41.602Z,36.85
2022-12-16T02:44:09.625Z,37.13
2022-12-16T02:46:41.812Z,36.95
2022-12-16T02:49:10.303Z,37.22
2022-12-16T02:51:38.781Z,36.97
2022-12-16T02:54:08.286Z,39.00
2022-12-16T02:56:35.420Z,37.78
2022-12-16T02:59:05.559Z,38.45
2022-12-16T03:01:37.786Z,39.88
2022-12-16T03:04:21.327Z,39.70
2022-12-16T03:06:50.765Z,40.72
2022-12-16T03:09:20.112Z,43.55
2022-12-16T03:11:48.797Z,47.58
2022-12-16T03:14:17.268Z,48.40
2022-12-16T03:16:45.666Z,47.70
2022-12-16T03:19:13.534Z,49.28
2022-12-16T03:21:49.904Z,47.25
2022-12-16T03:24:17.140Z,49.13
2022-12-16T03:26:48.723Z,50.20
2022-12-16T03:29:25.596Z,54.38
2022-12-16T03:31:52.689Z,51.15
2022-12-16T03:34:38.460Z,50.60
2022-12-16T03:37:07.773Z,48.95
2022-12-16T03:39:36.643Z,55.65
2022-12-16T03:42:04.433Z,54.45
2022-12-16T03:44:32.209Z,60.65
2022-12-16T03:46:59.411Z,61.22
2022-12-16T03:49:26.684Z,66.60
2022-12-16T03:51:54.915Z,58.60
2022-12-16T03:54:23.187Z,58.47
2022-12-16T03:56:50.348Z,59.22
2022-12-16T03:59:17.623Z,57.53
2022-12-16T04:01:44.886Z,59.92
2022-12-16T04:04:12.509Z,55.85
2022-12-16T04:06:39.640Z,57.40
2022-12-16T04:09:06.839Z,56.70
2022-12-16T04:11:52.590Z,52.25
2022-12-16T04:14:38.501Z,48.38
2022-12-16T04:17:25.097Z,44.20
2022-12-16T04:20:11.192Z,46.10
2022-12-16T04:23:01.231Z,44.42
2022-12-16T04:25:28.330Z,44.25
2022-12-16T04:27:55.496Z,45.63
2022-12-16T04:30:22.787Z,43.35
2022-12-16T04:33:13.444Z,39.55
2022-12-16T04:35:59.345Z,48.60
2022-12-16T04:38:45.279Z,42.25
2022-12-16T04:41:31.471Z,50.38
2022-12-16T04:44:17.132Z,46.08
2022-12-16T04:47:03.317Z,42.28
2022-12-16T04:49:49.226Z,44.15
2022-12-16T04:52:35.302Z,44.95
2022-12-16T04:55:21.130Z,43.33
2022-12-16T04:58:08.713Z,50.92
2022-12-16T05:00:54.757Z,48.55
2022-12-16T05:03:41.650Z,55.30
2022-12-16T05:06:27.443Z,49.30
2022-12-16T05:09:13.461Z,47.15
2022-12-16T05:11:59.356Z,46.47
2022-12-16T05:14:45.462Z,49.25
2022-12-16T05:17:31.265Z,49.40
2022-12-16T05:20:17.382Z,47.28
2022-12-16T05:23:03.492Z,49.40
2022-12-16T05:25:49.413Z,47.13
2022-12-16T05:28:35.289Z,48.05
2022-12-16T05:31:21.472Z,44.38
2022-12-16T05:34:07.351Z,49.05
2022-12-16T05:36:53.327Z,51.72
2022-12-16T05:39:39.212Z,53.10
2022-12-16T05:42:25.185Z,51.92
2022-12-16T05:45:11.234Z,47.88
2022-12-16T05:47:57.287Z,53.65
2022-12-16T05:50:43.114Z,63.33
2022-12-16T05:53:29.295Z,61.72
2022-12-16T05:56:15.222Z,53.15
2022-12-16T05:59:01.116Z,55.55
2022-12-16T06:01:47.206Z,55.80
2022-12-16T06:04:33.013Z,49.45
2022-12-16T06:07:18.928Z,59.78
2022-12-16T06:10:05.133Z,47.33
2022-12-16T06:12:51.002Z,56.70
2022-12-16T06:15:37.051Z,50.88
2022-12-16T06:18:23.004Z,42.08
2022-12-16T06:21:08.924Z,45.08
2022-12-16T06:23:54.878Z,43.78
2022-12-16T06:26:40.777Z,37.58
2022-12-16T06:29:28.348Z,34.42
2022-12-16T06:32:14.361Z,34.35
2022-12-16T06:35:00.238Z,31.63
2022-12-16T06:38:03.071Z,31.60
2022-12-16T06:40:48.895Z,31.05
2022-12-16T06:43:35.321Z,34.05
2022-12-16T06:46:21.694Z,31.25
2022-12-16T06:49:07.656Z,36.83
2022-12-16T06:51:53.552Z,38.47
2022-12-16T06:54:39.727Z,38.05
2022-12-16T06:57:25.614Z,37.63
2022-12-16T07:00:11.490Z,33.25
2022-12-16T07:02:57.450Z,40.50
2022-12-16T07:05:43.169Z,35.38
2022-12-16T07:08:29.186Z,36.00
2022-12-16T07:11:16.990Z,35.45
2022-12-16T07:14:03.605Z,39.10
2022-12-16T07:16:54.329Z,33.05
2022-12-16T07:19:40.265Z,34.55
2022-12-16T07:22:26.180Z,34.90
2022-12-16T07:25:12.147Z,35.47
2022-12-16T07:27:58.170Z,35.83
2022-12-16T07:30:44.010Z,35.45
2022-12-16T07:33:30.208Z,33.95
2022-12-16T08:49:52.531Z,36.53
2022-12-16T08:52:40.730Z,32.50
2022-12-16T08:55:29.623Z,30.73
2022-12-16T08:58:15.718Z,28.25
2022-12-16T09:01:06.618Z,28.42
2022-12-16T09:03:53.502Z,27.98
2022-12-16T09:06:40.833Z,29.27
2022-12-16T09:09:27.388Z,31.17
2022-12-16T09:12:13.521Z,30.00
2022-12-16T09:14:59.203Z,26.45
2022-12-16T09:17:45.008Z,27.13
2022-12-16T09:20:30.899Z,30.05
2022-12-16T09:23:20.527Z,26.67
2022-12-16T09:26:06.448Z,29.02
2022-12-16T09:28:52.370Z,25.80
2022-12-16T09:31:38.624Z,25.05
2022-12-16T09:34:24.450Z,23.77
2022-12-16T09:37:10.377Z,21.77
2022-12-16T09:39:56.341Z,23.17
2022-12-16T09:42:55.516Z,22.63
2022-12-16T09:45:50.564Z,18.75
2022-12-16T09:48:42.404Z,19.40
2022-12-16T09:51:28.853Z,17.83
2022-12-16T09:54:15.528Z,21.65
2022-12-16T09:57:02.259Z,21.05
2022-12-16T09:59:49.999Z,22.05
2022-12-16T10:02:37.138Z,25.23
2022-12-16T10:05:28.896Z,24.67
2022-12-16T10:11:10.690Z,21.20
2022-12-16T10:16:48.268Z,22.92
2022-12-16T10:19:39.842Z,25.52
2022-12-16T10:25:11.275Z,22.75
2022-12-16T10:28:02.967Z,25.48
2022-12-16T10:30:49.744Z,18.38
2022-12-16T10:33:36.016Z,24.42
2022-12-16T10:36:22.740Z,22.23
2022-12-16T10:39:11.257Z,25.95
2022-12-16T10:41:59.269Z,24.98
2022-12-16T10:44:48.172Z,21.70
2022-12-16T10:47:34.401Z,22.10
2022-12-16T10:50:20.365Z,22.50
2022-12-16T10:53:12.777Z,21.05
2022-12-16T10:56:30.857Z,23.20
2022-12-16T10:59:22.750Z,19.65
2022-12-16T11:02:18.888Z,20.08
2022-12-16T11:05:05.886Z,17.05
2022-12-16T11:08:03.867Z,17.45
2022-12-16T11:10:49.794Z,19.00
2022-12-16T11:13:42.138Z,21.30
2022-12-16T11:16:39.385Z,22.45
2022-12-16T11:19:37.934Z,22.75
2022-12-16T11:22:37.080Z,15.27
2022-12-16T11:25:23.924Z,21.35
2022-12-16T11:28:10.101Z,22.73
2022-12-16T11:31:03.469Z,21.85
2022-12-16T11:33:49.488Z,25.65
2022-12-16T11:36:40.867Z,26.90
2022-12-16T11:39:27.281Z,25.20
2022-12-16T11:42:13.732Z,24.02
2022-12-16T11:45:03.703Z,25.60
2022-12-16T11:47:57.821Z,25.52
2022-12-16T11:50:45.367Z,23.92
2022-12-16T11:53:53.843Z,25.15
2022-12-16T11:56:42.362Z,20.83
2022-12-16T11:59:51.043Z,20.63
2022-12-16T12:02:46.132Z,22.38
2022-12-16T12:05:32.948Z,21.75
2022-12-16T12:08:29.034Z,19.77
2022-12-16T12:11:15.051Z,22.20
2022-12-16T12:14:10.096Z,17.73
2022-12-16T12:17:09.676Z,20.08
2022-12-16T12:20:01.395Z,18.52
2022-12-16T12:22:47.163Z,17.52
2022-12-16T12:25:51.932Z,16.80
2022-12-16T12:28:46.585Z,13.52
2022-12-16T12:31:41.255Z,18.83
2022-12-16T12:34:31.031Z,15.85
2022-12-16T12:37:25.188Z,19.58
2022-12-16T12:40:19.737Z,15.05
2022-12-16T12:43:08.699Z,14.20
2022-12-16T12:46:09.469Z,10.98
2022-12-16T12:49:03.974Z,14.80
2022-12-16T12:52:21.610Z,17.45
2022-12-16T12:55:26.279Z,19.92
2022-12-16T12:58:13.598Z,16.55
2022-12-16T13:01:02.669Z,15.60
2022-12-16T13:04:03.311Z,15.98
2022-12-16T13:06:49.201Z,25.52
2022-12-16T13:10:00.879Z,15.88
2022-12-16T13:15:40.608Z,11.18
2022-12-16T13:18:26.760Z,14.85
2022-12-16T13:21:18.295Z,12.30
2022-12-16T13:24:04.972Z,14.15
2022-12-16T13:26:51.738Z,15.13
2022-12-16T13:29:37.672Z,12.63
2022-12-16T13:32:26.172Z,10.23
2022-12-16T13:35:22.363Z,10.10
2022-12-16T13:38:34.012Z,12.30
2022-12-16T13:41:21.148Z,12.10
2022-12-16T13:44:11.323Z,14.85
2022-12-16T13:47:02.076Z,11.02
2022-12-16T13:49:56.807Z,15.57
2022-12-16T13:52:42.941Z,18.50
2022-12-16T13:55:33.924Z,15.43
2022-12-16T13:58:22.723Z,13.82
2022-12-16T14:01:15.048Z,12.85
2022-12-16T14:04:03.311Z,14.40
2022-12-16T14:06:50.738Z,13.57
2022-12-16T14:09:56.509Z,14.02
2022-12-16T14:12:57.386Z,12.82
2022-12-16T14:15:53.594Z,12.40
2022-12-16T14:18:57.369Z,12.93
2022-12-16T14:21:47.961Z,17.23
2022-12-16T14:24:40.931Z,15.55
2022-12-16T14:27:32.548Z,14.95
2022-12-16T14:33:04.230Z,13.13
2022-12-16T14:35:50.393Z,16.88
2022-12-16T14:38:47.657Z,12.40
2022-12-16T14:41:34.534Z,15.65
2022-12-16T14:44:21.568Z,18.30
2022-12-16T14:47:10.738Z,15.98
2022-12-16T14:50:07.605Z,14.68
2022-12-16T14:52:53.402Z,12.43
2022-12-16T14:55:45.252Z,14.20
2022-12-16T14:58:32.188Z,11.70
2022-12-16T15:01:19.852Z,12.07
2022-12-16T15:04:07.921Z,13.57
2022-12-16T15:06:57.475Z,11.88
2022-12-16T15:09:51.657Z,13.88
2022-12-16T15:12:39.263Z,14.32
2022-12-16T15:15:27.324Z,14.13
2022-12-16T15:18:15.716Z,9.93
2022-12-16T15:21:11.719Z,13.90
2022-12-16T15:24:01.804Z,12.70
2022-12-16T15:26:50.275Z,10.98
2022-12-16T15:29:54.240Z,11.75
2022-12-16T15:32:49.830Z,13.80
2022-12-16T15:35:46.257Z,11.85
2022-12-16T15:38:34.671Z,12.55
2022-12-16T15:41:21.304Z,14.57
2022-12-16T15:44:07.313Z,12.63
2022-12-16T15:46:53.717Z,12.98
2022-12-16T15:49:41.362Z,14.02
2022-12-16T15:52:47.615Z,12.88
2022-12-16T15:55:43.609Z,13.57
2022-12-16T15:58:38.217Z,11.65
2022-12-16T16:01:36.070Z,12.65
2022-12-16T16:04:22.401Z,12.43
2022-12-16T16:07:09.756Z,13.02
2022-12-16T16:09:56.765Z,13.02
2022-12-16T16:12:43.162Z,14.88
2022-12-16T16:15:30.725Z,11.00
2022-12-16T16:18:18.163Z,14.85
2022-12-16T16:21:04.321Z,15.90
2022-12-16T16:23:50.484Z,14.13
2022-12-16T16:26:37.668Z,12.98
2022-12-16T16:29:23.994Z,14.15
2022-12-16T16:32:10.133Z,10.38
2022-12-16T16:34:56.056Z,13.32
2022-12-16T16:37:41.986Z,13.65
2022-12-16T16:40:35.448Z,15.07
2022-12-16T16:43:21.344Z,15.25
2022-12-16T16:46:11.898Z,15.40
2022-12-16T16:48:58.000Z,16.17
2022-12-16T16:51:43.920Z,12.32
2022-12-16T16:54:30.091Z,12.57
2022-12-16T16:57:16.152Z,13.48
2022-12-16T17:00:02.299Z,14.50
2022-12-16T17:02:48.162Z,14.05
2022-12-16T17:05:34.079Z,14.55
2022-12-16T17:08:19.984Z,14.65
2022-12-16T17:11:06.693Z,15.52
2022-12-16T17:13:52.448Z,16.58
2022-12-16T17:16:38.565Z,14.15
2022-12-16T17:19:24.238Z,16.65
2022-12-16T17:22:10.249Z,16.33
2022-12-16T17:24:56.149Z,16.02
2022-12-16T17:27:43.731Z,17.30
2022-12-16T17:30:35.300Z,13.45
2022-12-16T17:36:10.412Z,14.75
2022-12-16T17:39:00.199Z,16.70
2022-12-16T17:41:50.112Z,16.25
2022-12-16T17:44:36.060Z,17.30
2022-12-16T17:47:21.960Z,15.43
2022-12-16T17:50:08.061Z,15.27
2022-12-16T17:52:54.047Z,11.80
2022-12-16T17:55:40.074Z,11.82
2022-12-16T17:58:25.900Z,15.35
2022-12-16T18:01:11.860Z,16.38
2022-12-16T18:03:57.866Z,15.63
2022-12-16T18:06:43.792Z,16.95
2022-12-16T18:09:29.779Z,15.60
2022-12-16T18:12:15.712Z,15.90
2022-12-16T18:15:21.438Z,16.80
2022-12-16T18:18:07.894Z,16.30
2022-12-16T18:20:54.247Z,16.27
2022-12-16T18:23:40.693Z,15.80
2022-12-16T18:26:27.264Z,15.35
2022-12-16T18:29:13.333Z,15.50
2022-12-16T18:31:59.316Z,14.35
2022-12-16T18:34:45.160Z,14.57
2022-12-16T18:37:31.560Z,15.07
2022-12-16T18:40:17.603Z,15.32
2022-12-16T18:43:03.582Z,15.02
2022-12-16T18:45:49.769Z,16.23
2022-12-16T18:48:52.400Z,15.52
2022-12-16T18:51:38.253Z,14.50
2022-12-16T18:54:24.273Z,15.23
2022-12-16T18:57:10.254Z,14.90
2022-12-16T18:59:56.301Z,15.05
2022-12-16T19:02:42.722Z,14.20
2022-12-16T19:05:28.601Z,15.48
2022-12-16T19:08:14.789Z,13.75
2022-12-16T19:11:00.426Z,14.52
2022-12-16T19:13:46.722Z,15.48
2022-12-16T19:16:32.623Z,15.95
2022-12-16T19:19:20.481Z,15.57
2022-12-16T19:22:07.114Z,13.50
2022-12-16T19:24:56.276Z,15.13
2022-12-16T19:27:42.262Z,16.85
2022-12-16T19:30:28.917Z,16.42
2022-12-16T19:33:14.720Z,16.65
2022-12-16T19:36:00.788Z,18.05
2022-12-16T19:38:46.648Z,15.43
2022-12-16T19:41:47.005Z,15.50
2022-12-16T19:44:32.993Z,14.55
2022-12-16T19:47:19.031Z,10.43
2022-12-16T19:50:04.951Z,14.38
2022-12-16T19:52:51.686Z,15.82
2022-12-16T19:55:37.362Z,15.15
2022-12-16T19:58:23.362Z,14.45
2022-12-16T20:01:09.516Z,15.02
2022-12-16T20:03:56.652Z,13.93
2022-12-16T20:06:42.983Z,13.93
2022-12-16T20:09:29.103Z,13.55
2022-12-16T20:12:15.057Z,14.82
2022-12-16T20:15:01.054Z,14.32
2022-12-16T20:17:46.918Z,12.88
2022-12-16T20:20:33.094Z,13.55
2022-12-16T20:23:19.194Z,14.43
2022-12-16T20:26:12.918Z,14.77
2022-12-16T20:28:58.906Z,17.92
2022-12-16T20:31:44.899Z,18.83
2022-12-16T20:34:31.030Z,19.33
2022-12-16T20:37:17.174Z,18.38
2022-12-16T20:40:03.277Z,20.80
2022-12-16T20:42:49.239Z,19.35
2022-12-16T20:45:35.728Z,22.38
2022-12-16T20:48:22.093Z,26.77
2022-12-16T20:51:22.574Z,22.85
2022-12-16T20:54:11.026Z,19.52
2022-12-16T20:56:57.200Z,18.70
2022-12-16T20:59:43.340Z,25.30
2022-12-16T21:02:33.761Z,21.60
2022-12-16T21:05:20.166Z,23.90
2022-12-16T21:08:06.227Z,21.67
2022-12-16T21:10:52.191Z,26.40
2022-12-16T21:13:38.334Z,21.17
2022-12-16T21:16:26.036Z,33.95
2022-12-16T21:19:12.008Z,23.25
2022-12-16T21:21:58.051Z,18.05
2022-12-16T21:24:44.177Z,23.13
2022-12-16T21:27:30.277Z,16.75
2022-12-16T21:30:16.196Z,17.63
2022-12-16T21:33:02.233Z,17.23
2022-12-16T21:35:48.210Z,14.13
2022-12-16T21:38:34.312Z,17.05
2022-12-16T21:41:20.348Z,16.52
2022-12-16T21:44:06.421Z,14.10
2022-12-16T21:46:52.515Z,14.10
2022-12-16T21:49:39.462Z,13.02
2022-12-16T21:52:25.505Z,11.82
2022-12-16T21:55:11.705Z,12.65
2022-12-16T21:57:57.689Z,14.05
2022-12-16T22:00:43.765Z,15.90
2022-12-16T22:03:29.577Z,15.00
2022-12-16T22:06:18.118Z,15.60
2022-12-16T22:09:04.159Z,13.18
2022-12-16T22:11:50.157Z,15.90
2022-12-16T22:14:36.105Z,13.88
2022-12-16T22:17:22.271Z,15.32
2022-12-16T22:20:08.061Z,14.65
2022-12-16T22:22:54.125Z,13.93
2022-12-16T22:25:42.183Z,17.85
2022-12-16T22:28:28.119Z,20.13
2022-12-16T22:31:16.065Z,19.23
2022-12-16T22:34:02.520Z,18.67
2022-12-16T22:36:48.034Z,22.05
2022-12-16T22:39:34.100Z,24.75
2022-12-16T22:42:19.869Z,24.52
2022-12-16T22:45:05.902Z,25.42
2022-12-16T22:47:51.883Z,25.60
2022-12-16T22:50:37.847Z,21.45
2022-12-16T22:53:23.970Z,21.83
2022-12-16T22:56:13.710Z,24.88
2022-12-16T22:58:59.705Z,23.63
2022-12-16T23:01:45.668Z,25.00
2022-12-16T23:04:31.526Z,20.45
2022-12-16T23:07:17.443Z,18.88
2022-12-16T23:10:03.560Z,20.52
2022-12-16T23:12:49.714Z,22.83
2022-12-16T23:15:35.752Z,26.30
2022-12-16T23:18:21.650Z,28.67
2022-12-16T23:21:09.714Z,27.27
2022-12-16T23:27:02.392Z,36.28
2022-12-16T23:29:48.565Z,34.25
2022-12-16T23:35:25.667Z,24.67
2022-12-16T23:38:18.595Z,24.98
2022-12-16T23:41:04.512Z,25.27
2022-12-16T23:43:50.425Z,26.00
2022-12-16T23:46:36.559Z,27.42
2022-12-16T23:49:22.414Z,21.13
2022-12-16T23:52:08.433Z,18.10
2022-12-16T23:54:54.388Z,25.85
2022-12-16T23:57:42.131Z,18.23
